createdAt,value
2022-08-08T00:01:08.688Z,101004.91
2022-08-08T00:06:11.530Z,101068.31
2022-08-08T00:11:15.303Z,100941.91
2022-08-08T00:16:27.114Z,100938.13
2022-08-08T00:21:29.640Z,101001.03
2022-08-08T00:26:37.587Z,101130.13
2022-08-08T00:32:20.974Z,100955.81
2022-08-08T00:37:03.736Z,101141.81
2022-08-08T00:42:42.165Z,101127.41
2022-08-08T00:48:30.226Z,101133.84
2022-08-08T00:53:43.662Z,101061.66
2022-08-08T00:59:44.305Z,100963.69
2022-08-08T01:05:42.506Z,101011.28
2022-08-08T01:11:00.484Z,100956.94
2022-08-08T01:16:34.190Z,101080.28
2022-08-08T01:22:13.298Z,101099.47
2022-08-08T01:27:47.061Z,101143.84
2022-08-08T01:33:27.478Z,101147.94
2022-08-08T01:39:04.893Z,101106.09
2022-08-08T01:44:10.168Z,101149.69
2022-08-08T01:49:23.070Z,100999.28
2022-08-08T01:55:26.039Z,101070.16
2022-08-08T02:00:18.125Z,101123.84
2022-08-08T02:05:56.331Z,101160.25
2022-08-08T02:10:59.410Z,101054.94
2022-08-08T02:16:06.668Z,101168.66
2022-08-08T02:21:26.343Z,101173.03
2022-08-08T02:26:30.241Z,101032.75
2022-08-08T02:31:58.035Z,101097.88
2022-08-08T02:37:03.019Z,101043.63
2022-08-08T02:42:38.344Z,101069.34
2022-08-08T02:48:25.805Z,101194.06
2022-08-08T02:53:50.860Z,101197.56
2022-08-08T02:59:37.027Z,101200.09
2022-08-08T03:05:09.013Z,101198.50
2022-08-08T03:10:36.997Z,101108.44
2022-08-08T03:16:05.189Z,101036.38
2022-08-08T03:21:09.892Z,101225.78
2022-08-08T03:26:08.372Z,101040.03
2022-08-08T03:31:25.680Z,101125.34
2022-08-08T03:36:27.392Z,101045.19
2022-08-08T03:42:27.762Z,101167.78
2022-08-08T03:46:51.527Z,101027.13
2022-08-08T03:51:54.188Z,101245.72
2022-08-08T03:58:33.831Z,101184.56
2022-08-08T04:02:36.513Z,101191.16
2022-08-08T04:07:38.011Z,101128.34
2022-08-08T04:12:35.679Z,101095.72
2022-08-08T04:17:46.211Z,101081.13
2022-08-08T04:22:44.652Z,101101.00
2022-08-08T04:28:03.327Z,101138.13
2022-08-08T04:33:07.951Z,101077.47
2022-08-08T04:38:04.956Z,101106.00
2022-08-08T04:43:05.697Z,101225.53
2022-08-08T04:48:10.139Z,101172.28
2022-08-08T04:53:14.005Z,101072.84
2022-08-08T04:58:26.751Z,101101.34
2022-08-08T05:04:08.041Z,101227.63
2022-08-08T05:08:35.402Z,101104.34
2022-08-08T05:13:32.082Z,101233.69
2022-08-08T05:18:27.674Z,101038.88
2022-08-08T06:55:18.259Z,101346.03
2022-08-08T07:00:30.247Z,101339.00
2022-08-08T07:06:11.681Z,101143.13
2022-08-08T07:12:03.843Z,101337.16
2022-08-08T07:25:10.866Z,101330.72
2022-08-08T07:30:28.518Z,101252.09
2022-08-08T07:36:36.483Z,101119.78
2022-08-08T07:42:04.585Z,101213.16
2022-08-08T07:48:08.376Z,101167.47
2022-08-08T08:00:37.242Z,101328.72
2022-08-08T08:25:56.728Z,101301.41
2022-08-08T08:30:53.143Z,101243.31
2022-08-08T08:36:21.077Z,101319.78
2022-08-08T08:41:20.221Z,101292.66
2022-08-08T08:46:26.323Z,101275.19
2022-08-08T08:51:27.290Z,101228.06
2022-08-08T08:56:30.072Z,101269.44
2022-08-08T09:01:35.009Z,101279.03
2022-08-08T09:06:34.624Z,101287.97
2022-08-08T09:11:47.356Z,101142.56
2022-08-08T09:16:54.686Z,101276.22
2022-08-08T09:22:01.960Z,101258.09
2022-08-08T09:27:14.836Z,101196.75
2022-08-08T09:32:34.867Z,101196.75
2022-08-08T09:38:00.716Z,101199.53
2022-08-08T09:43:24.198Z,101191.41
2022-08-08T09:48:38.809Z,101140.19
2022-08-08T09:53:59.355Z,101179.00
2022-08-08T09:59:00.087Z,101168.78
2022-08-08T10:04:02.445Z,101126.38
2022-08-08T10:08:58.668Z,101181.25
2022-08-08T10:14:01.302Z,101215.47
2022-08-08T10:19:04.770Z,101178.91
2022-08-08T10:24:04.884Z,101204.19
2022-08-08T10:29:11.481Z,101203.03
2022-08-08T10:34:18.624Z,101119.13
2022-08-08T10:39:23.317Z,101132.91
2022-08-08T10:44:49.455Z,101154.19
2022-08-08T10:50:02.024Z,101110.84
2022-08-08T10:54:57.615Z,101147.09
2022-08-08T10:59:58.009Z,101145.44
2022-08-08T11:04:53.610Z,101137.72
2022-08-08T11:09:48.147Z,101137.50
2022-08-08T11:14:51.420Z,101110.03
2022-08-08T11:19:46.605Z,101076.38
2022-08-08T11:24:48.446Z,101132.06
2022-08-08T11:30:17.483Z,101067.19
2022-08-08T11:35:24.468Z,101041.28
2022-08-08T11:40:31.409Z,101004.94
2022-08-08T11:45:29.926Z,101100.41
2022-08-08T11:50:35.482Z,101047.72
2022-08-08T11:55:28.974Z,101004.38
2022-08-08T12:00:23.403Z,101031.06
2022-08-08T12:05:17.002Z,101089.06
2022-08-08T12:10:16.682Z,101021.91
2022-08-08T12:15:13.932Z,101083.56
2022-08-08T12:20:14.615Z,101025.78
2022-08-08T12:25:09.013Z,101069.34
2022-08-08T12:30:05.731Z,101006.03
2022-08-08T12:35:18.218Z,101031.50
2022-08-08T12:40:22.217Z,100974.91
2022-08-08T12:45:58.915Z,101052.06
2022-08-08T12:50:40.532Z,101028.25
2022-08-08T12:56:17.496Z,100994.66
2022-08-08T13:01:12.181Z,101026.06
2022-08-08T13:06:14.002Z,101037.25
2022-08-08T13:11:18.915Z,101000.06
2022-08-08T13:16:21.303Z,101018.94
2022-08-08T13:21:14.898Z,101009.59
2022-08-08T13:26:15.389Z,101019.22
2022-08-08T13:31:16.603Z,101002.56
2022-08-08T13:36:12.200Z,100991.78
2022-08-08T13:41:16.495Z,100987.56
2022-08-08T13:46:26.960Z,100995.63
2022-08-08T13:51:24.812Z,100939.59
2022-08-08T13:56:44.792Z,100954.78
2022-08-08T14:02:00.356Z,100927.38
2022-08-08T14:07:04.100Z,100962.56
2022-08-08T14:11:59.573Z,100961.47
2022-08-08T14:16:53.690Z,100971.28
2022-08-08T14:21:53.831Z,100872.16
2022-08-08T14:26:56.243Z,100960.16
2022-08-08T14:32:08.776Z,100962.75
2022-08-08T14:37:57.353Z,100946.44
2022-08-08T14:43:31.472Z,100949.50
2022-08-08T14:48:34.079Z,100947.97
2022-08-08T14:53:55.479Z,100941.06
2022-08-08T14:58:51.115Z,100935.75
2022-08-08T15:03:53.611Z,100930.34
2022-08-08T15:08:58.509Z,100948.06
2022-08-08T15:14:01.995Z,100937.59
2022-08-08T15:18:56.779Z,100896.59
2022-08-08T15:23:52.152Z,100930.59
2022-08-08T15:28:45.450Z,100904.28
2022-08-08T15:34:00.083Z,100827.22
2022-08-08T15:38:55.230Z,100894.19
2022-08-08T15:44:01.105Z,100829.81
2022-08-08T15:48:59.373Z,100912.31
2022-08-08T15:53:52.854Z,100841.59
2022-08-08T15:58:50.333Z,100881.50
2022-08-08T16:03:46.122Z,100907.19
2022-08-08T16:09:02.282Z,100938.91
2022-08-08T16:13:56.449Z,100864.09
2022-08-08T16:18:57.606Z,100911.56
2022-08-08T16:23:55.769Z,100855.81
2022-08-08T16:29:01.417Z,100950.06
2022-08-08T16:33:58.190Z,100955.44
2022-08-08T16:38:57.231Z,100878.88
2022-08-08T16:43:53.165Z,100850.38
2022-08-08T16:48:51.911Z,100977.69
2022-08-08T16:55:03.627Z,100869.63
2022-08-08T16:59:12.152Z,100879.09
2022-08-08T17:04:05.739Z,100967.53
2022-08-08T17:08:59.145Z,100936.47
2022-08-08T17:14:01.586Z,100877.31
2022-08-08T17:19:00.709Z,100946.75
2022-08-08T17:24:01.765Z,101013.16
2022-08-08T17:28:56.208Z,100966.72
2022-08-08T17:34:48.251Z,100990.03
2022-08-08T17:39:46.254Z,101020.16
2022-08-08T17:44:23.385Z,101018.34
2022-08-08T17:49:24.178Z,101005.91
2022-08-08T17:54:26.194Z,100991.34
2022-08-08T17:59:30.517Z,100991.94
2022-08-08T18:04:42.509Z,100984.06
2022-08-08T18:09:47.235Z,101042.59
2022-08-08T18:14:41.242Z,100937.84
2022-08-08T18:19:45.723Z,101032.94
2022-08-08T18:24:39.523Z,101004.03
2022-08-08T18:29:39.243Z,101011.25
2022-08-08T18:34:51.491Z,101063.06
2022-08-08T18:39:56.432Z,101090.03
2022-08-08T18:44:55.310Z,101085.59
2022-08-08T18:49:57.523Z,101111.59
2022-08-08T18:55:00.203Z,101099.66
2022-08-08T19:00:15.871Z,101062.47
2022-08-08T19:05:11.660Z,101111.53
2022-08-08T19:10:14.472Z,101099.31
2022-08-08T19:15:14.388Z,101118.38
2022-08-08T19:20:16.420Z,101053.53
2022-08-08T19:26:00.961Z,101084.34
2022-08-08T19:30:31.927Z,101019.88
2022-08-08T19:35:44.383Z,101128.81
2022-08-08T19:40:42.192Z,101106.94
2022-08-08T19:45:59.298Z,101067.63
2022-08-08T19:50:52.210Z,101098.75
2022-08-08T19:55:50.186Z,101111.13
2022-08-08T20:00:46.591Z,101020.41
2022-08-08T20:06:13.627Z,101137.97
2022-08-08T20:11:00.258Z,101115.25
2022-08-08T20:16:00.187Z,101134.00
2022-08-08T20:20:56.040Z,101147.09
2022-08-08T20:25:49.578Z,101117.78
2022-08-08T20:30:55.808Z,101141.06
2022-08-08T20:35:58.654Z,101116.25
2022-08-08T20:40:53.155Z,101120.81
2022-08-08T20:45:58.155Z,101119.84
2022-08-08T20:50:58.756Z,101141.78
2022-08-08T20:55:52.617Z,101149.06
2022-08-08T21:00:46.037Z,101139.09
2022-08-08T21:05:58.613Z,101014.88
2022-08-08T21:10:53.873Z,101103.75
2022-08-08T21:16:05.030Z,101101.13
2022-08-08T21:21:00.314Z,101133.47
2022-08-08T21:25:57.623Z,101098.28
2022-08-08T21:30:52.306Z,101168.06
2022-08-08T21:36:17.944Z,101089.84
2022-08-08T21:41:02.138Z,101145.66
2022-08-08T21:48:03.905Z,101173.88
2022-08-08T21:51:11.528Z,101197.38
2022-08-08T21:56:27.970Z,101064.84
2022-08-08T22:01:38.915Z,101203.50
2022-08-08T22:06:34.679Z,101117.78
2022-08-08T22:12:02.564Z,101144.69
2022-08-08T22:16:47.853Z,101157.63
2022-08-08T22:21:46.700Z,101173.22
2022-08-08T22:27:01.616Z,101074.81
2022-08-08T22:31:58.550Z,101177.25
2022-08-08T22:36:55.748Z,101173.50
2022-08-08T22:41:50.667Z,101095.91
2022-08-08T22:46:45.938Z,101155.13
2022-08-08T22:51:42.690Z,101187.47
2022-08-08T22:56:39.867Z,101143.97
2022-08-08T23:02:02.807Z,101187.06
2022-08-08T23:06:49.892Z,101185.22
2022-08-08T23:12:18.198Z,101175.16
2022-08-08T23:17:11.202Z,101077.84
2022-08-08T23:22:06.593Z,101119.94
2022-08-08T23:27:01.334Z,101135.41
2022-08-08T23:31:54.870Z,101177.25
2022-08-08T23:36:56.670Z,101178.44
2022-08-08T23:41:51.356Z,101132.19
2022-08-08T23:49:02.105Z,101045.63
2022-08-08T23:52:04.029Z,101178.38
2022-08-08T23:56:59.094Z,101139.78
